sensor_id;sensor_type;location;lat;lon;timestamp;P1;durP1;ratioP1;P2;durP2;ratioP2
5776;SDS011;2914;42.668;23.346;2023-01-19T00:01:41;36.57;;;5.80;;
5776;SDS011;2914;42.668;23.346;2023-01-19T00:04:10;58.57;;;5.30;;
5776;SDS011;2914;42.668;23.346;2023-01-19T00:06:39;24.20;;;5.37;;
5776;SDS011;2914;42.668;23.346;2023-01-19T00:09:08;26.07;;;4.27;;
5776;SDS011;2914;42.668;23.346;2023-01-19T00:11:37;26.53;;;4.50;;
5776;SDS011;2914;42.668;23.346;2023-01-19T00:14:06;21.37;;;3.53;;
5776;SDS011;2914;42.668;23.346;2023-01-19T00:16:35;37.50;;;5.43;;
5776;SDS011;2914;42.668;23.346;2023-01-19T00:19:23;28.97;;;5.47;;
5776;SDS011;2914;42.668;23.346;2023-01-19T00:21:52;38.10;;;5.40;;
5776;SDS011;2914;42.668;23.346;2023-01-19T00:24:21;32.80;;;5.17;;
5776;SDS011;2914;42.668;23.346;2023-01-19T00:26:50;18.00;;;4.33;;
5776;SDS011;2914;42.668;23.346;2023-01-19T00:29:19;35.47;;;5.10;;
5776;SDS011;2914;42.668;23.346;2023-01-19T00:31:49;36.40;;;5.13;;
5776;SDS011;2914;42.668;23.346;2023-01-19T00:34:18;24.83;;;5.10;;
5776;SDS011;2914;42.668;23.346;2023-01-19T00:36:47;42.20;;;4.97;;
5776;SDS011;2914;42.668;23.346;2023-01-19T00:39:16;46.17;;;5.37;;
5776;SDS011;2914;42.668;23.346;2023-01-19T00:41:45;32.10;;;4.77;;
5776;SDS011;2914;42.668;23.346;2023-01-19T00:44:32;29.50;;;4.00;;
5776;SDS011;2914;42.668;23.346;2023-01-19T00:47:02;35.07;;;5.20;;
5776;SDS011;2914;42.668;23.346;2023-01-19T00:49:31;20.40;;;4.97;;
5776;SDS011;2914;42.668;23.346;2023-01-19T00:52:00;25.90;;;4.83;;
5776;SDS011;2914;42.668;23.346;2023-01-19T00:54:29;31.57;;;4.93;;
5776;SDS011;2914;42.668;23.346;2023-01-19T00:56:58;17.00;;;3.90;;
5776;SDS011;2914;42.668;23.346;2023-01-19T00:59:28;55.43;;;5.47;;
5776;SDS011;2914;42.668;23.346;2023-01-19T01:02:06;28.33;;;3.50;;
5776;SDS011;2914;42.668;23.346;2023-01-19T01:04:36;47.27;;;5.80;;
5776;SDS011;2914;42.668;23.346;2023-01-19T01:07:05;35.93;;;5.00;;
5776;SDS011;2914;42.668;23.346;2023-01-19T01:09:35;23.93;;;3.83;;
5776;SDS011;2914;42.668;23.346;2023-01-19T01:12:05;40.43;;;4.50;;
5776;SDS011;2914;42.668;23.346;2023-01-19T01:14:34;23.97;;;4.03;;
5776;SDS011;2914;42.668;23.346;2023-01-19T01:17:03;20.40;;;4.93;;
5776;SDS011;2914;42.668;23.346;2023-01-19T01:19:34;40.73;;;5.63;;
5776;SDS011;2914;42.668;23.346;2023-01-19T01:22:04;41.47;;;4.83;;
5776;SDS011;2914;42.668;23.346;2023-01-19T01:24:33;30.10;;;5.00;;
5776;SDS011;2914;42.668;23.346;2023-01-19T01:27:03;25.47;;;5.00;;
5776;SDS011;2914;42.668;23.346;2023-01-19T01:29:32;37.60;;;4.97;;
5776;SDS011;2914;42.668;23.346;2023-01-19T01:32:02;25.23;;;4.67;;
5776;SDS011;2914;42.668;23.346;2023-01-19T01:34:30;28.47;;;4.17;;
5776;SDS011;2914;42.668;23.346;2023-01-19T01:37:00;33.03;;;4.00;;
5776;SDS011;2914;42.668;23.346;2023-01-19T01:39:29;32.23;;;5.27;;
5776;SDS011;2914;42.668;23.346;2023-01-19T01:41:58;47.00;;;6.03;;
5776;SDS011;2914;42.668;23.346;2023-01-19T01:44:42;43.87;;;6.03;;
5776;SDS011;2914;42.668;23.346;2023-01-19T01:47:18;27.23;;;5.90;;
5776;SDS011;2914;42.668;23.346;2023-01-19T01:49:52;46.63;;;5.20;;
5776;SDS011;2914;42.668;23.346;2023-01-19T01:52:24;37.00;;;4.77;;
5776;SDS011;2914;42.668;23.346;2023-01-19T01:55:04;31.87;;;4.70;;
5776;SDS011;2914;42.668;23.346;2023-01-19T01:57:35;27.17;;;4.73;;
5776;SDS011;2914;42.668;23.346;2023-01-19T02:00:07;21.43;;;4.00;;
5776;SDS011;2914;42.668;23.346;2023-01-19T02:02:37;18.23;;;4.37;;
5776;SDS011;2914;42.668;23.346;2023-01-19T02:05:21;36.67;;;3.70;;
5776;SDS011;2914;42.668;23.346;2023-01-19T02:07:55;33.53;;;5.07;;
5776;SDS011;2914;42.668;23.346;2023-01-19T02:10:43;53.93;;;6.07;;
5776;SDS011;2914;42.668;23.346;2023-01-19T02:13:32;33.63;;;3.77;;
5776;SDS011;2914;42.668;23.346;2023-01-19T02:16:04;33.80;;;4.73;;
5776;SDS011;2914;42.668;23.346;2023-01-19T02:18:42;30.30;;;4.07;;
5776;SDS011;2914;42.668;23.346;2023-01-19T02:21:13;26.43;;;3.30;;
5776;SDS011;2914;42.668;23.346;2023-01-19T02:23:45;27.07;;;4.30;;
5776;SDS011;2914;42.668;23.346;2023-01-19T02:26:17;31.27;;;3.80;;
5776;SDS011;2914;42.668;23.346;2023-01-19T02:28:49;41.00;;;5.47;;
5776;SDS011;2914;42.668;23.346;2023-01-19T02:31:22;23.20;;;3.87;;
5776;SDS011;2914;42.668;23.346;2023-01-19T02:33:52;18.57;;;4.03;;
5776;SDS011;2914;42.668;23.346;2023-01-19T02:36:23;28.87;;;4.40;;
5776;SDS011;2914;42.668;23.346;2023-01-19T02:38:54;24.70;;;4.40;;
5776;SDS011;2914;42.668;23.346;2023-01-19T02:41:33;35.07;;;3.40;;
5776;SDS011;2914;42.668;23.346;2023-01-19T02:44:05;13.43;;;3.30;;
5776;SDS011;2914;42.668;23.346;2023-01-19T02:46:44;12.20;;;4.33;;
5776;SDS011;2914;42.668;23.346;2023-01-19T02:49:13;19.27;;;3.27;;
5776;SDS011;2914;42.668;23.346;2023-01-19T02:51:43;13.93;;;3.23;;
5776;SDS011;2914;42.668;23.346;2023-01-19T02:54:14;20.40;;;3.50;;
5776;SDS011;2914;42.668;23.346;2023-01-19T02:57:09;18.87;;;2.90;;
5776;SDS011;2914;42.668;23.346;2023-01-19T02:59:52;13.70;;;3.03;;
5776;SDS011;2914;42.668;23.346;2023-01-19T03:02:29;22.87;;;5.30;;
5776;SDS011;2914;42.668;23.346;2023-01-19T03:05:32;31.50;;;3.43;;
5776;SDS011;2914;42.668;23.346;2023-01-19T03:08:06;39.43;;;3.23;;
5776;SDS011;2914;42.668;23.346;2023-01-19T03:10:40;27.47;;;3.80;;
5776;SDS011;2914;42.668;23.346;2023-01-19T03:13:15;18.53;;;3.80;;
5776;SDS011;2914;42.668;23.346;2023-01-19T03:15:47;24.37;;;3.70;;
5776;SDS011;2914;42.668;23.346;2023-01-19T03:18:21;31.60;;;4.97;;
5776;SDS011;2914;42.668;23.346;2023-01-19T03:20:52;21.43;;;3.93;;
5776;SDS011;2914;42.668;23.346;2023-01-19T03:23:24;36.70;;;4.73;;
5776;SDS011;2914;42.668;23.346;2023-01-19T03:25:56;35.30;;;4.30;;
5776;SDS011;2914;42.668;23.346;2023-01-19T03:28:28;21.40;;;4.37;;
5776;SDS011;2914;42.668;23.346;2023-01-19T03:30:59;56.73;;;4.73;;
5776;SDS011;2914;42.668;23.346;2023-01-19T03:33:31;20.73;;;4.50;;
5776;SDS011;2914;42.668;23.346;2023-01-19T03:36:03;27.83;;;4.20;;
5776;SDS011;2914;42.668;23.346;2023-01-19T03:38:36;46.07;;;4.40;;
5776;SDS011;2914;42.668;23.346;2023-01-19T03:41:07;37.60;;;4.27;;
5776;SDS011;2914;42.668;23.346;2023-01-19T03:43:38;29.57;;;4.10;;
5776;SDS011;2914;42.668;23.346;2023-01-19T03:46:08;32.37;;;4.43;;
5776;SDS011;2914;42.668;23.346;2023-01-19T03:48:40;19.13;;;4.37;;
5776;SDS011;2914;42.668;23.346;2023-01-19T03:51:10;34.63;;;5.50;;
5776;SDS011;2914;42.668;23.346;2023-01-19T03:53:40;36.07;;;4.90;;
5776;SDS011;2914;42.668;23.346;2023-01-19T03:56:11;32.90;;;5.07;;
5776;SDS011;2914;42.668;23.346;2023-01-19T03:58:44;38.77;;;5.87;;
5776;SDS011;2914;42.668;23.346;2023-01-19T04:01:15;22.67;;;4.37;;
5776;SDS011;2914;42.668;23.346;2023-01-19T04:03:47;32.03;;;5.13;;
5776;SDS011;2914;42.668;23.346;2023-01-19T04:06:17;21.53;;;5.67;;
5776;SDS011;2914;42.668;23.346;2023-01-19T04:08:47;43.57;;;4.67;;
5776;SDS011;2914;42.668;23.346;2023-01-19T04:11:17;46.00;;;6.37;;
5776;SDS011;2914;42.668;23.346;2023-01-19T04:13:46;41.20;;;5.20;;
5776;SDS011;2914;42.668;23.346;2023-01-19T04:18:52;37.77;;;7.30;;
5776;SDS011;2914;42.668;23.346;2023-01-19T04:21:21;55.33;;;7.70;;
5776;SDS011;2914;42.668;23.346;2023-01-19T04:24:06;43.87;;;4.97;;
5776;SDS011;2914;42.668;23.346;2023-01-19T04:26:36;29.73;;;6.47;;
5776;SDS011;2914;42.668;23.346;2023-01-19T04:29:06;35.27;;;6.70;;
5776;SDS011;2914;42.668;23.346;2023-01-19T04:31:35;57.73;;;8.63;;
5776;SDS011;2914;42.668;23.346;2023-01-19T04:34:04;37.70;;;6.30;;
5776;SDS011;2914;42.668;23.346;2023-01-19T04:36:33;74.77;;;5.70;;
5776;SDS011;2914;42.668;23.346;2023-01-19T04:39:02;68.80;;;8.10;;
5776;SDS011;2914;42.668;23.346;2023-01-19T04:41:33;57.37;;;6.50;;
5776;SDS011;2914;42.668;23.346;2023-01-19T04:44:04;54.30;;;7.43;;
5776;SDS011;2914;42.668;23.346;2023-01-19T04:46:33;50.20;;;7.17;;
5776;SDS011;2914;42.668;23.346;2023-01-19T04:49:02;71.83;;;8.33;;
5776;SDS011;2914;42.668;23.346;2023-01-19T04:51:31;34.40;;;5.73;;
5776;SDS011;2914;42.668;23.346;2023-01-19T04:54:01;49.87;;;7.60;;
5776;SDS011;2914;42.668;23.346;2023-01-19T04:56:31;58.70;;;6.93;;
5776;SDS011;2914;42.668;23.346;2023-01-19T04:59:01;89.50;;;9.20;;
5776;SDS011;2914;42.668;23.346;2023-01-19T05:01:30;41.20;;;5.80;;
5776;SDS011;2914;42.668;23.346;2023-01-19T05:05:12;34.13;;;6.30;;
5776;SDS011;2914;42.668;23.346;2023-01-19T05:11:08;34.63;;;5.90;;
5776;SDS011;2914;42.668;23.346;2023-01-19T05:13:37;44.40;;;6.60;;
5776;SDS011;2914;42.668;23.346;2023-01-19T05:16:15;44.80;;;7.20;;
5776;SDS011;2914;42.668;23.346;2023-01-19T05:18:45;55.57;;;7.77;;
5776;SDS011;2914;42.668;23.346;2023-01-19T05:21:52;42.53;;;6.43;;
5776;SDS011;2914;42.668;23.346;2023-01-19T05:24:22;47.83;;;8.77;;
5776;SDS011;2914;42.668;23.346;2023-01-19T05:26:51;32.23;;;7.53;;
5776;SDS011;2914;42.668;23.346;2023-01-19T05:29:20;39.77;;;6.30;;
5776;SDS011;2914;42.668;23.346;2023-01-19T05:31:49;66.77;;;7.10;;
5776;SDS011;2914;42.668;23.346;2023-01-19T05:34:27;57.57;;;8.97;;
5776;SDS011;2914;42.668;23.346;2023-01-19T05:36:56;53.30;;;8.37;;
5776;SDS011;2914;42.668;23.346;2023-01-19T05:39:25;36.80;;;6.00;;
5776;SDS011;2914;42.668;23.346;2023-01-19T05:41:55;69.40;;;6.50;;
5776;SDS011;2914;42.668;23.346;2023-01-19T05:44:24;51.37;;;6.57;;
5776;SDS011;2914;42.668;23.346;2023-01-19T05:46:55;63.83;;;7.70;;
5776;SDS011;2914;42.668;23.346;2023-01-19T05:49:24;43.63;;;7.00;;
5776;SDS011;2914;42.668;23.346;2023-01-19T05:51:55;47.37;;;6.93;;
5776;SDS011;2914;42.668;23.346;2023-01-19T05:54:26;65.77;;;9.10;;
5776;SDS011;2914;42.668;23.346;2023-01-19T05:57:06;56.53;;;8.43;;
5776;SDS011;2914;42.668;23.346;2023-01-19T05:59:35;44.23;;;7.30;;
5776;SDS011;2914;42.668;23.346;2023-01-19T06:02:19;46.77;;;7.43;;
5776;SDS011;2914;42.668;23.346;2023-01-19T06:04:50;35.63;;;6.40;;
5776;SDS011;2914;42.668;23.346;2023-01-19T06:07:55;23.93;;;6.27;;
5776;SDS011;2914;42.668;23.346;2023-01-19T06:13:00;86.07;;;7.97;;
5776;SDS011;2914;42.668;23.346;2023-01-19T06:15:29;49.33;;;7.30;;
5776;SDS011;2914;42.668;23.346;2023-01-19T06:17:58;35.07;;;6.13;;
5776;SDS011;2914;42.668;23.346;2023-01-19T06:20:28;43.80;;;6.97;;
5776;SDS011;2914;42.668;23.346;2023-01-19T06:23:06;54.00;;;5.73;;
5776;SDS011;2914;42.668;23.346;2023-01-19T06:25:35;66.87;;;7.50;;
5776;SDS011;2914;42.668;23.346;2023-01-19T06:28:13;45.07;;;6.13;;
5776;SDS011;2914;42.668;23.346;2023-01-19T06:30:44;60.20;;;7.97;;
5776;SDS011;2914;42.668;23.346;2023-01-19T06:33:16;49.77;;;7.00;;
5776;SDS011;2914;42.668;23.346;2023-01-19T06:35:46;39.07;;;6.60;;
5776;SDS011;2914;42.668;23.346;2023-01-19T06:38:16;42.63;;;6.83;;
5776;SDS011;2914;42.668;23.346;2023-01-19T06:40:50;65.70;;;6.00;;
5776;SDS011;2914;42.668;23.346;2023-01-19T06:43:27;71.07;;;7.00;;
5776;SDS011;2914;42.668;23.346;2023-01-19T06:45:57;66.67;;;7.90;;
5776;SDS011;2914;42.668;23.346;2023-01-19T06:48:29;45.70;;;6.43;;
5776;SDS011;2914;42.668;23.346;2023-01-19T06:50:59;48.90;;;8.00;;
5776;SDS011;2914;42.668;23.346;2023-01-19T06:53:30;52.97;;;8.70;;
5776;SDS011;2914;42.668;23.346;2023-01-19T06:55:59;52.23;;;6.97;;
5776;SDS011;2914;42.668;23.346;2023-01-19T06:58:36;56.90;;;7.93;;
5776;SDS011;2914;42.668;23.346;2023-01-19T07:01:08;69.53;;;8.07;;
5776;SDS011;2914;42.668;23.346;2023-01-19T07:03:37;70.37;;;9.07;;
5776;SDS011;2914;42.668;23.346;2023-01-19T07:06:07;56.70;;;7.80;;
5776;SDS011;2914;42.668;23.346;2023-01-19T07:08:36;43.13;;;6.33;;
5776;SDS011;2914;42.668;23.346;2023-01-19T07:11:06;53.07;;;7.60;;
5776;SDS011;2914;42.668;23.346;2023-01-19T07:13:37;42.80;;;7.07;;
5776;SDS011;2914;42.668;23.346;2023-01-19T07:16:09;60.33;;;6.23;;
5776;SDS011;2914;42.668;23.346;2023-01-19T07:18:47;40.43;;;5.97;;
5776;SDS011;2914;42.668;23.346;2023-01-19T07:21:18;45.73;;;6.93;;
5776;SDS011;2914;42.668;23.346;2023-01-19T07:23:48;33.70;;;6.40;;
5776;SDS011;2914;42.668;23.346;2023-01-19T07:26:18;39.80;;;6.67;;
5776;SDS011;2914;42.668;23.346;2023-01-19T07:28:49;41.53;;;6.63;;
5776;SDS011;2914;42.668;23.346;2023-01-19T07:31:19;50.63;;;6.57;;
5776;SDS011;2914;42.668;23.346;2023-01-19T07:33:48;53.43;;;6.73;;
5776;SDS011;2914;42.668;23.346;2023-01-19T07:36:19;45.93;;;5.97;;
5776;SDS011;2914;42.668;23.346;2023-01-19T07:38:48;48.50;;;8.23;;
5776;SDS011;2914;42.668;23.346;2023-01-19T08:01:57;67.27;;;7.57;;
5776;SDS011;2914;42.668;23.346;2023-01-19T08:05:01;50.37;;;6.50;;
5776;SDS011;2914;42.668;23.346;2023-01-19T08:07:30;45.67;;;7.40;;
5776;SDS011;2914;42.668;23.346;2023-01-19T08:10:05;93.40;;;10.77;;
5776;SDS011;2914;42.668;23.346;2023-01-19T08:12:43;113.53;;;12.40;;
5776;SDS011;2914;42.668;23.346;2023-01-19T08:15:22;71.57;;;7.07;;
5776;SDS011;2914;42.668;23.346;2023-01-19T08:17:55;55.97;;;7.50;;
5776;SDS011;2914;42.668;23.346;2023-01-19T08:20:33;55.00;;;7.30;;
5776;SDS011;2914;42.668;23.346;2023-01-19T08:23:02;63.43;;;7.70;;
5776;SDS011;2914;42.668;23.346;2023-01-19T08:25:41;60.37;;;10.20;;
5776;SDS011;2914;42.668;23.346;2023-01-19T08:28:12;51.40;;;7.70;;
5776;SDS011;2914;42.668;23.346;2023-01-19T08:30:42;59.50;;;9.97;;
5776;SDS011;2914;42.668;23.346;2023-01-19T08:33:13;55.33;;;8.10;;
5776;SDS011;2914;42.668;23.346;2023-01-19T08:35:45;53.90;;;8.13;;
5776;SDS011;2914;42.668;23.346;2023-01-19T08:38:15;89.83;;;8.77;;
5776;SDS011;2914;42.668;23.346;2023-01-19T08:40:47;38.27;;;7.07;;
5776;SDS011;2914;42.668;23.346;2023-01-19T08:43:17;47.50;;;7.67;;
5776;SDS011;2914;42.668;23.346;2023-01-19T08:45:50;52.97;;;7.77;;
5776;SDS011;2914;42.668;23.346;2023-01-19T08:48:20;45.07;;;6.67;;
5776;SDS011;2914;42.668;23.346;2023-01-19T08:50:51;37.07;;;7.50;;
5776;SDS011;2914;42.668;23.346;2023-01-19T08:53:21;71.17;;;9.43;;
5776;SDS011;2914;42.668;23.346;2023-01-19T08:55:54;41.60;;;7.33;;
5776;SDS011;2914;42.668;23.346;2023-01-19T08:58:26;43.37;;;8.67;;
5776;SDS011;2914;42.668;23.346;2023-01-19T09:00:58;52.80;;;6.63;;
5776;SDS011;2914;42.668;23.346;2023-01-19T09:03:30;71.57;;;9.20;;
5776;SDS011;2914;42.668;23.346;2023-01-19T09:05:59;43.93;;;6.67;;
5776;SDS011;2914;42.668;23.346;2023-01-19T09:08:41;44.03;;;6.50;;
5776;SDS011;2914;42.668;23.346;2023-01-19T09:11:10;48.47;;;5.80;;
5776;SDS011;2914;42.668;23.346;2023-01-19T09:13:41;37.20;;;6.30;;
5776;SDS011;2914;42.668;23.346;2023-01-19T09:16:11;56.00;;;7.07;;
5776;SDS011;2914;42.668;23.346;2023-01-19T09:18:40;59.53;;;10.30;;
5776;SDS011;2914;42.668;23.346;2023-01-19T09:21:18;47.57;;;5.77;;
5776;SDS011;2914;42.668;23.346;2023-01-19T09:23:47;51.87;;;7.50;;
5776;SDS011;2914;42.668;23.346;2023-01-19T09:26:16;42.70;;;6.17;;
5776;SDS011;2914;42.668;23.346;2023-01-19T09:28:47;53.37;;;7.50;;
5776;SDS011;2914;42.668;23.346;2023-01-19T09:31:16;44.53;;;5.50;;
5776;SDS011;2914;42.668;23.346;2023-01-19T09:33:45;61.23;;;7.23;;
5776;SDS011;2914;42.668;23.346;2023-01-19T09:36:14;37.33;;;5.93;;
5776;SDS011;2914;42.668;23.346;2023-01-19T09:38:43;42.93;;;7.13;;
5776;SDS011;2914;42.668;23.346;2023-01-19T09:41:15;40.93;;;5.97;;
5776;SDS011;2914;42.668;23.346;2023-01-19T09:43:49;45.87;;;6.50;;
5776;SDS011;2914;42.668;23.346;2023-01-19T09:46:21;46.97;;;6.10;;
5776;SDS011;2914;42.668;23.346;2023-01-19T09:48:52;32.60;;;6.53;;
5776;SDS011;2914;42.668;23.346;2023-01-19T09:51:23;55.57;;;7.83;;
5776;SDS011;2914;42.668;23.346;2023-01-19T09:54:01;34.50;;;5.67;;
5776;SDS011;2914;42.668;23.346;2023-01-19T09:56:35;50.67;;;7.00;;
5776;SDS011;2914;42.668;23.346;2023-01-19T09:59:16;30.80;;;5.77;;
5776;SDS011;2914;42.668;23.346;2023-01-19T10:02:05;35.30;;;5.63;;
5776;SDS011;2914;42.668;23.346;2023-01-19T10:04:42;38.33;;;5.73;;
5776;SDS011;2914;42.668;23.346;2023-01-19T10:07:25;29.67;;;4.63;;
5776;SDS011;2914;42.668;23.346;2023-01-19T10:10:03;38.60;;;4.10;;
5776;SDS011;2914;42.668;23.346;2023-01-19T10:12:40;31.03;;;6.10;;
5776;SDS011;2914;42.668;23.346;2023-01-19T10:15:16;23.23;;;4.20;;
5776;SDS011;2914;42.668;23.346;2023-01-19T10:17:52;39.67;;;5.17;;
5776;SDS011;2914;42.668;23.346;2023-01-19T10:20:26;23.90;;;3.97;;
5776;SDS011;2914;42.668;23.346;2023-01-19T10:22:59;31.17;;;5.03;;
5776;SDS011;2914;42.668;23.346;2023-01-19T10:25:30;33.60;;;4.90;;
5776;SDS011;2914;42.668;23.346;2023-01-19T10:28:00;37.97;;;6.07;;
5776;SDS011;2914;42.668;23.346;2023-01-19T10:30:29;46.03;;;6.43;;
5776;SDS011;2914;42.668;23.346;2023-01-19T10:33:00;33.33;;;4.90;;
5776;SDS011;2914;42.668;23.346;2023-01-19T10:35:29;34.67;;;6.07;;
5776;SDS011;2914;42.668;23.346;2023-01-19T10:37:59;35.20;;;5.70;;
5776;SDS011;2914;42.668;23.346;2023-01-19T10:40:29;40.67;;;6.10;;
5776;SDS011;2914;42.668;23.346;2023-01-19T10:43:01;29.17;;;5.37;;
5776;SDS011;2914;42.668;23.346;2023-01-19T10:45:50;31.50;;;4.43;;
5776;SDS011;2914;42.668;23.346;2023-01-19T10:48:20;38.53;;;6.13;;
5776;SDS011;2914;42.668;23.346;2023-01-19T10:50:50;45.63;;;5.87;;
5776;SDS011;2914;42.668;23.346;2023-01-19T10:53:51;35.63;;;4.77;;
5776;SDS011;2914;42.668;23.346;2023-01-19T10:56:22;21.20;;;4.90;;
5776;SDS011;2914;42.668;23.346;2023-01-19T10:58:53;38.67;;;4.10;;
5776;SDS011;2914;42.668;23.346;2023-01-19T11:01:23;35.83;;;5.57;;
5776;SDS011;2914;42.668;23.346;2023-01-19T11:03:55;45.73;;;5.50;;
5776;SDS011;2914;42.668;23.346;2023-01-19T11:06:27;53.33;;;6.03;;
5776;SDS011;2914;42.668;23.346;2023-01-19T11:09:09;29.43;;;4.17;;
5776;SDS011;2914;42.668;23.346;2023-01-19T11:11:43;42.87;;;6.20;;
5776;SDS011;2914;42.668;23.346;2023-01-19T11:14:16;34.47;;;5.60;;
5776;SDS011;2914;42.668;23.346;2023-01-19T11:16:47;31.30;;;4.40;;
5776;SDS011;2914;42.668;23.346;2023-01-19T11:19:20;28.00;;;5.03;;
5776;SDS011;2914;42.668;23.346;2023-01-19T11:22:07;42.90;;;5.40;;
5776;SDS011;2914;42.668;23.346;2023-01-19T11:24:39;27.70;;;5.33;;
5776;SDS011;2914;42.668;23.346;2023-01-19T11:27:09;34.27;;;4.13;;
5776;SDS011;2914;42.668;23.346;2023-01-19T11:29:40;35.13;;;5.47;;
5776;SDS011;2914;42.668;23.346;2023-01-19T11:32:19;31.93;;;4.03;;
5776;SDS011;2914;42.668;23.346;2023-01-19T11:34:50;25.63;;;4.30;;
5776;SDS011;2914;42.668;23.346;2023-01-19T11:37:26;18.30;;;3.73;;
5776;SDS011;2914;42.668;23.346;2023-01-19T11:39:59;18.10;;;3.80;;
5776;SDS011;2914;42.668;23.346;2023-01-19T11:42:31;22.40;;;3.37;;
5776;SDS011;2914;42.668;23.346;2023-01-19T11:45:03;24.13;;;3.47;;
5776;SDS011;2914;42.668;23.346;2023-01-19T11:47:37;28.43;;;5.30;;
5776;SDS011;2914;42.668;23.346;2023-01-19T11:50:20;32.60;;;3.20;;
5776;SDS011;2914;42.668;23.346;2023-01-19T11:52:51;18.70;;;3.87;;
5776;SDS011;2914;42.668;23.346;2023-01-19T11:55:24;22.90;;;4.60;;
5776;SDS011;2914;42.668;23.346;2023-01-19T11:57:57;23.40;;;4.00;;
5776;SDS011;2914;42.668;23.346;2023-01-19T12:00:27;18.63;;;4.07;;
5776;SDS011;2914;42.668;23.346;2023-01-19T12:03:09;35.30;;;6.20;;
5776;SDS011;2914;42.668;23.346;2023-01-19T12:05:41;29.90;;;4.63;;
5776;SDS011;2914;42.668;23.346;2023-01-19T12:10:49;28.77;;;5.07;;
5776;SDS011;2914;42.668;23.346;2023-01-19T12:13:22;22.40;;;4.27;;
5776;SDS011;2914;42.668;23.346;2023-01-19T12:15:53;31.30;;;3.23;;
5776;SDS011;2914;42.668;23.346;2023-01-19T12:18:24;34.13;;;5.03;;
5776;SDS011;2914;42.668;23.346;2023-01-19T12:20:56;22.13;;;4.47;;
5776;SDS011;2914;42.668;23.346;2023-01-19T12:23:30;20.53;;;4.27;;
5776;SDS011;2914;42.668;23.346;2023-01-19T12:26:31;36.63;;;3.70;;
5776;SDS011;2914;42.668;23.346;2023-01-19T12:29:06;31.43;;;4.30;;
5776;SDS011;2914;42.668;23.346;2023-01-19T12:31:51;19.13;;;4.30;;
5776;SDS011;2914;42.668;23.346;2023-01-19T12:34:42;20.40;;;3.97;;
5776;SDS011;2914;42.668;23.346;2023-01-19T12:37:32;29.63;;;3.97;;
5776;SDS011;2914;42.668;23.346;2023-01-19T12:40:16;16.73;;;3.60;;
5776;SDS011;2914;42.668;23.346;2023-01-19T12:42:52;7.50;;;1.40;;
5776;SDS011;2914;42.668;23.346;2023-01-19T12:45:27;18.37;;;3.07;;
5776;SDS011;2914;42.668;23.346;2023-01-19T12:47:58;26.77;;;4.23;;
5776;SDS011;2914;42.668;23.346;2023-01-19T12:50:29;30.77;;;3.53;;
5776;SDS011;2914;42.668;23.346;2023-01-19T12:53:01;36.97;;;3.57;;
5776;SDS011;2914;42.668;23.346;2023-01-19T12:55:33;13.47;;;3.80;;
5776;SDS011;2914;42.668;23.346;2023-01-19T12:58:05;14.00;;;3.50;;
5776;SDS011;2914;42.668;23.346;2023-01-19T13:00:40;25.17;;;4.90;;
5776;SDS011;2914;42.668;23.346;2023-01-19T13:06:12;23.27;;;5.20;;
5776;SDS011;2914;42.668;23.346;2023-01-19T13:08:57;21.07;;;4.43;;
5776;SDS011;2914;42.668;23.346;2023-01-19T13:11:27;10.43;;;2.40;;
5776;SDS011;2914;42.668;23.346;2023-01-19T13:17:05;19.47;;;3.43;;
5776;SDS011;2914;42.668;23.346;2023-01-19T13:19:50;26.93;;;3.73;;
5776;SDS011;2914;42.668;23.346;2023-01-19T13:25:51;14.30;;;3.60;;
5776;SDS011;2914;42.668;23.346;2023-01-19T13:28:25;22.77;;;3.60;;
5776;SDS011;2914;42.668;23.346;2023-01-19T13:30:58;22.13;;;3.23;;
5776;SDS011;2914;42.668;23.346;2023-01-19T13:33:32;29.27;;;5.00;;
5776;SDS011;2914;42.668;23.346;2023-01-19T13:36:17;17.33;;;3.57;;
5776;SDS011;2914;42.668;23.346;2023-01-19T13:38:52;29.47;;;5.27;;
5776;SDS011;2914;42.668;23.346;2023-01-19T13:41:24;20.50;;;3.63;;
5776;SDS011;2914;42.668;23.346;2023-01-19T13:43:57;24.77;;;3.20;;
5776;SDS011;2914;42.668;23.346;2023-01-19T13:46:29;19.57;;;4.17;;
5776;SDS011;2914;42.668;23.346;2023-01-19T13:49:00;21.07;;;3.23;;
5776;SDS011;2914;42.668;23.346;2023-01-19T13:51:31;38.83;;;5.47;;
5776;SDS011;2914;42.668;23.346;2023-01-19T13:54:01;23.23;;;3.60;;
5776;SDS011;2914;42.668;23.346;2023-01-19T13:56:31;26.33;;;4.07;;
5776;SDS011;2914;42.668;23.346;2023-01-19T13:59:01;23.60;;;3.77;;
5776;SDS011;2914;42.668;23.346;2023-01-19T14:01:37;23.07;;;4.03;;
5776;SDS011;2914;42.668;23.346;2023-01-19T14:04:25;13.67;;;3.20;;
5776;SDS011;2914;42.668;23.346;2023-01-19T14:07:38;14.30;;;3.33;;
5776;SDS011;2914;42.668;23.346;2023-01-19T14:10:13;10.47;;;3.27;;
5776;SDS011;2914;42.668;23.346;2023-01-19T14:12:42;12.33;;;2.70;;
5776;SDS011;2914;42.668;23.346;2023-01-19T14:15:14;6.70;;;1.70;;
5776;SDS011;2914;42.668;23.346;2023-01-19T14:17:43;6.93;;;2.30;;
5776;SDS011;2914;42.668;23.346;2023-01-19T14:23:34;7.23;;;2.50;;
5776;SDS011;2914;42.668;23.346;2023-01-19T14:32:14;7.17;;;2.30;;
5776;SDS011;2914;42.668;23.346;2023-01-19T14:34:46;10.40;;;2.33;;
5776;SDS011;2914;42.668;23.346;2023-01-19T14:37:20;11.60;;;3.33;;
5776;SDS011;2914;42.668;23.346;2023-01-19T14:39:53;9.50;;;2.90;;
5776;SDS011;2914;42.668;23.346;2023-01-19T14:42:25;5.63;;;2.40;;
5776;SDS011;2914;42.668;23.346;2023-01-19T14:44:57;18.23;;;3.63;;
5776;SDS011;2914;42.668;23.346;2023-01-19T14:47:31;19.90;;;3.47;;
5776;SDS011;2914;42.668;23.346;2023-01-19T14:50:07;6.20;;;2.50;;
5776;SDS011;2914;42.668;23.346;2023-01-19T14:53:04;10.27;;;2.23;;
5776;SDS011;2914;42.668;23.346;2023-01-19T14:55:43;14.73;;;3.30;;
5776;SDS011;2914;42.668;23.346;2023-01-19T14:58:15;7.40;;;3.10;;
5776;SDS011;2914;42.668;23.346;2023-01-19T15:00:46;10.80;;;2.47;;
5776;SDS011;2914;42.668;23.346;2023-01-19T15:03:16;15.67;;;3.13;;
5776;SDS011;2914;42.668;23.346;2023-01-19T15:05:45;11.23;;;3.17;;
5776;SDS011;2914;42.668;23.346;2023-01-19T15:08:30;13.40;;;3.80;;
5776;SDS011;2914;42.668;23.346;2023-01-19T15:11:08;10.40;;;3.00;;
5776;SDS011;2914;42.668;23.346;2023-01-19T15:13:35;13.20;;;4.70;;
5776;SDS011;2914;42.668;23.346;2023-01-19T15:16:06;12.90;;;3.13;;
5776;SDS011;2914;42.668;23.346;2023-01-19T15:18:35;9.87;;;3.30;;
5776;SDS011;2914;42.668;23.346;2023-01-19T15:21:05;10.30;;;3.30;;
5776;SDS011;2914;42.668;23.346;2023-01-19T15:23:36;23.00;;;3.40;;
5776;SDS011;2914;42.668;23.346;2023-01-19T15:26:05;15.10;;;3.60;;
5776;SDS011;2914;42.668;23.346;2023-01-19T15:28:38;19.80;;;4.57;;
5776;SDS011;2914;42.668;23.346;2023-01-19T15:31:08;28.87;;;3.10;;
5776;SDS011;2914;42.668;23.346;2023-01-19T15:33:41;22.07;;;4.10;;
5776;SDS011;2914;42.668;23.346;2023-01-19T15:36:11;9.27;;;2.80;;
5776;SDS011;2914;42.668;23.346;2023-01-19T15:38:41;18.20;;;3.80;;
5776;SDS011;2914;42.668;23.346;2023-01-19T15:41:14;13.60;;;3.53;;
5776;SDS011;2914;42.668;23.346;2023-01-19T15:43:46;7.00;;;2.33;;
5776;SDS011;2914;42.668;23.346;2023-01-19T15:46:16;10.37;;;3.30;;
5776;SDS011;2914;42.668;23.346;2023-01-19T15:48:46;12.93;;;3.53;;
5776;SDS011;2914;42.668;23.346;2023-01-19T15:51:16;10.30;;;2.93;;
5776;SDS011;2914;42.668;23.346;2023-01-19T15:53:48;9.30;;;3.50;;
5776;SDS011;2914;42.668;23.346;2023-01-19T15:56:18;13.03;;;3.90;;
5776;SDS011;2914;42.668;23.346;2023-01-19T15:58:49;28.47;;;8.90;;
5776;SDS011;2914;42.668;23.346;2023-01-19T16:01:20;15.90;;;4.10;;
5776;SDS011;2914;42.668;23.346;2023-01-19T16:03:52;9.30;;;3.87;;
5776;SDS011;2914;42.668;23.346;2023-01-19T16:06:21;17.30;;;4.70;;
5776;SDS011;2914;42.668;23.346;2023-01-19T16:08:50;15.33;;;5.90;;
5776;SDS011;2914;42.668;23.346;2023-01-19T16:11:23;18.37;;;5.90;;
5776;SDS011;2914;42.668;23.346;2023-01-19T16:13:54;12.50;;;4.73;;
5776;SDS011;2914;42.668;23.346;2023-01-19T16:16:25;13.53;;;3.90;;